Terminal Aerodrome Forecast
Issued by NWS Goodland, KS

Home | Current Version | Previous Version | Text Only | Print | Product List | Glossary On
Versions: 1 2 3 4 5 6 7 8 9 10 11 12 13 14 15 16 17 18 19 20 21 22 23 24 25 26 27 28 29
390
FTUS43 KGLD 232327
TAFGLD
TAF
KGLD 232327Z 2400/2424 VRB05KT 5SM -TSRA BKN035CB
      TEMPO 2400/2403 VRB15G25KT 1SM +TSRA BKN020CB
     FM240600 17012KT 5SM -RA BR OVC025
     FM240900 32007KT 5SM -RA BR OVC015
      TEMPO 2410/2414 OVC007=

USA.gov is the U.S. government's official web portal to all federal, state and local government web resources and services.